Time;durP1;ratioP1;P1;durP2;ratioP2;P2;SDS_P1;SDS_P2;PMS_P1;PMS_P2;Temp;Humidity;BMP_temperature;BMP_pressure;BME280_temperature;BME280_humidity;BME280_pressure;Samples;Min_cycle;Max_cycle;Signal;HPM_P1;HPM_P2
2023/05/27 00:02:06;;;;;;;9.80;4.40;;;;;;;10.12;93.42;101303.59;181003;1267;43041;-57
2023/05/27 00:06:09;;;;;;;12.80;5.50;;;;;;;9.99;93.97;101303.13;180936;1269;43760;-57
2023/05/27 00:10:12;;;;;;;18.00;4.90;;;;;;;9.90;94.63;101301.89;180879;1268;57135;-57
2023/05/27 00:14:17;;;;;;;15.30;6.40;;;;;;;9.89;93.83;101303.42;180981;1268;43104;-57
2023/05/27 00:18:21;;;;;;;15.60;5.60;;;;;;;9.91;94.96;101305.09;180986;1268;43453;-57
2023/05/27 00:22:24;;;;;;;17.60;6.20;;;;;;;9.97;95.84;101304.66;180946;1268;43137;-57
2023/05/27 00:26:29;;;;;;;17.20;7.80;;;;;;;10.08;95.78;101303.30;181000;1267;43125;-56
2023/05/27 00:30:32;;;;;;;18.40;6.50;;;;;;;10.15;97.03;101302.66;180999;1267;58086;-57
2023/05/27 00:34:34;;;;;;;15.30;6.70;;;;;;;10.22;96.26;101302.56;180987;1268;43627;-57
2023/05/27 00:38:37;;;;;;;9.90;7.00;;;;;;;10.26;96.15;101292.23;180960;1268;43121;-57
2023/05/27 00:42:40;;;;;;;16.90;6.10;;;;;;;10.29;95.82;101290.74;180961;1267;43104;-57
2023/05/27 00:46:46;;;;;;;12.80;6.70;;;;;;;10.27;96.12;101291.45;180962;1268;43386;-57
2023/05/27 00:50:49;;;;;;;;;;;;;;;10.15;97.41;101295.89;180957;1268;58043;-57
2023/05/27 00:54:53;;;;;;;17.60;7.60;;;;;;;10.07;97.72;101294.28;180963;1268;43215;-57
2023/05/27 00:58:56;;;;;;;12.30;6.40;;;;;;;9.98;98.16;101296.09;181007;1268;43766;-56
2023/05/27 01:02:59;;;;;;;12.50;5.00;;;;;;;9.90;98.28;101295.41;180934;1268;43507;-57
2023/05/27 01:07:10;;;;;;;10.60;6.70;;;;;;;9.83;99.49;101298.13;180943;1268;43106;-57
2023/05/27 01:11:21;;;;;;;18.60;7.50;;;;;;;9.84;99.43;101292.19;180973;1267;58396;-56
2023/05/27 01:15:51;;;;;;;7.10;4.20;;;;;;;9.91;98.33;101293.58;180844;1270;43665;-57
2023/05/27 01:19:56;;;;;;;11.20;5.10;;;;;;;9.88;96.33;101297.44;180622;1270;43778;-57
2023/05/27 01:24:03;;;;;;;21.90;8.70;;;;;;;9.71;96.42;101296.56;180818;1269;43732;-57
2023/05/27 01:28:06;;;;;;;16.60;6.30;;;;;;;9.62;98.89;101298.71;180895;1270;43061;-57
2023/05/27 01:32:41;;;;;;;16.40;7.10;;;;;;;9.60;98.88;101297.02;180881;1268;58880;-56
2023/05/27 01:36:48;;;;;;;12.50;7.10;;;;;;;9.60;99.15;101298.63;180864;1270;43636;-56
2023/05/27 01:40:53;;;;;;;17.60;6.40;;;;;;;9.60;98.73;101295.11;180902;1268;43011;-56
2023/05/27 01:44:57;;;;;;;14.30;5.30;;;;;;;9.58;98.84;101295.53;180879;1269;43734;-57
2023/05/27 01:49:24;;;;;;;18.80;7.00;;;;;;;9.53;99.45;101288.42;180892;1269;43620;-57
2023/05/27 01:53:27;;;;;;;16.70;6.00;;;;;;;9.42;100.00;101288.04;180862;1269;57138;-56
2023/05/27 01:57:30;;;;;;;16.10;7.10;;;;;;;9.40;99.92;101285.88;180812;1270;43407;-56
2023/05/27 02:01:34;;;;;;;21.40;8.20;;;;;;;9.34;99.67;101281.77;180860;1269;43075;-56
2023/05/27 02:05:37;;;;;;;17.10;6.80;;;;;;;9.29;98.72;101280.28;180867;1268;43120;-56
2023/05/27 02:09:46;;;;;;;12.80;7.10;;;;;;;9.32;97.65;101273.77;180834;1269;43788;-56
2023/05/27 02:13:49;;;;;;;14.60;7.80;;;;;;;9.26;96.38;101280.69;180926;1268;58356;-57
2023/05/27 02:17:55;;;;;;;14.70;7.20;;;;;;;9.18;97.30;101284.14;180984;1268;43078;-57
2023/05/27 02:21:58;;;;;;;12.00;5.70;;;;;;;8.88;99.85;101285.94;180964;1268;43164;-57
2023/05/27 02:26:01;;;;;;;18.50;7.40;;;;;;;8.63;100.00;101283.30;180958;1267;43159;-56
2023/05/27 02:30:31;;;;;;;18.40;7.00;;;;;;;8.50;100.00;101290.70;180962;1268;43043;-57
2023/05/27 02:34:37;;;;;;;19.40;7.80;;;;;;;8.34;100.00;101289.46;180983;1267;58249;-56
2023/05/27 02:38:45;;;;;;;12.60;6.50;;;;;;;8.25;100.00;101295.27;181060;1267;43093;-57
2023/05/27 02:42:48;;;;;;;13.40;7.40;;;;;;;8.15;100.00;101300.41;180996;1268;43018;-56
2023/05/27 02:46:51;;;;;;;11.50;6.00;;;;;;;8.05;100.00;101308.58;180895;1268;43161;-56
2023/05/27 02:51:48;;;;;;;14.00;5.80;;;;;;;7.97;100.00;101314.83;180993;1267;43175;-57
2023/05/27 02:55:52;;;;;;;14.30;7.40;;;;;;;7.98;100.00;101316.00;180969;1268;58431;-57
2023/05/27 02:59:55;;;;;;;20.30;8.10;;;;;;;7.88;100.00;101318.84;180902;1267;43154;-56
2023/05/27 03:03:58;;;;;;;20.50;7.00;;;;;;;7.84;100.00;101319.95;180987;1269;43350;-57
2023/05/27 03:08:02;;;;;;;16.40;8.10;;;;;;;7.91;100.00;101320.30;180875;1268;43194;-57
2023/05/27 03:12:05;;;;;;;12.00;6.00;;;;;;;8.00;100.00;101325.78;180939;1268;43477;-57
2023/05/27 03:16:08;;;;;;;14.00;6.40;;;;;;;8.09;100.00;101329.91;180930;1268;58090;-57
2023/05/27 03:20:12;;;;;;;13.70;8.20;;;;;;;8.16;100.00;101323.70;180953;1268;43151;-57
2023/05/27 03:24:47;;;;;;;13.70;7.10;;;;;;;8.28;100.00;101318.47;181004;1268;43100;-56
2023/05/27 03:28:50;;;;;;;26.50;9.50;;;;;;;8.43;100.00;101314.96;180959;1268;43104;-57
2023/05/27 03:32:52;;;;;;;12.00;7.30;;;;;;;8.55;100.00;101312.04;180917;1268;43958;-57
2023/05/27 03:36:55;;;;;;;24.30;7.80;;;;;;;8.39;100.00;101315.36;180969;1268;58184;-57
2023/05/27 03:40:58;;;;;;;11.30;6.30;;;;;;;8.35;100.00;101317.52;180969;1267;43183;-56
2023/05/27 03:45:04;;;;;;;24.50;10.00;;;;;;;8.41;100.00;101321.08;180961;1268;43212;-57
2023/05/27 03:49:07;;;;;;;16.00;6.50;;;;;;;8.52;100.00;101318.95;180979;1267;43532;-57
2023/05/27 03:53:09;;;;;;;16.40;9.20;;;;;;;8.55;100.00;101326.86;180956;1268;43452;-57
2023/05/27 03:57:12;;;;;;;13.20;9.30;;;;;;;8.57;100.00;101329.05;180947;1268;58511;-57
2023/05/27 04:01:16;;;;;;;17.60;8.50;;;;;;;8.69;100.00;101333.00;180964;1268;43132;-57
2023/05/27 04:05:19;;;;;;;14.90;7.10;;;;;;;8.87;100.00;101332.86;180970;1271;43356;-56
2023/05/27 04:09:47;;;;;;;22.20;8.60;;;;;;;8.94;100.00;101329.95;180884;1268;43700;-56
2023/05/27 04:13:50;;;;;;;24.00;9.10;;;;;;;9.09;100.00;101330.51;180956;1268;43725;-57
2023/05/27 04:17:53;;;;;;;21.50;8.20;;;;;;;9.29;100.00;101335.52;180976;1268;59210;-56
2023/05/27 04:22:26;;;;;;;9.50;6.80;;;;;;;9.83;100.00;101339.92;180992;1267;43178;-56
2023/05/27 04:26:29;;;;;;;12.10;7.50;;;;;;;10.41;100.00;101338.63;180954;1270;43379;-57
2023/05/27 04:30:33;;;;;;;11.70;7.10;;;;;;;11.29;100.00;101341.58;180934;1268;43454;-57
2023/05/27 04:34:36;;;;;;;10.90;7.20;;;;;;;12.01;96.04;101342.66;180968;1268;43798;-57
2023/05/27 04:38:40;;;;;;;10.50;6.70;;;;;;;12.41;93.53;101337.92;180910;1268;58194;-57
2023/05/27 04:42:43;;;;;;;15.30;8.40;;;;;;;12.75;89.33;101340.97;180915;1268;43110;-57
2023/05/27 04:46:47;;;;;;;16.30;8.10;;;;;;;13.21;89.79;101345.50;180981;1268;43115;-57
2023/05/27 04:50:52;;;;;;;18.10;8.00;;;;;;;13.90;87.12;101345.59;180908;1268;43572;-57
2023/05/27 04:54:55;;;;;;;14.60;7.20;;;;;;;14.52;83.68;101345.55;179205;1268;2322738;-57
2023/05/27 04:58:59;;;;;;;15.20;7.40;;;;;;;14.69;80.59;101345.73;180936;1268;58044;-57
2023/05/27 05:03:20;;;;;;;14.20;7.00;;;;;;;15.11;80.52;101349.77;180964;1267;43216;-57
2023/05/27 05:07:24;;;;;;;12.80;6.50;;;;;;;15.70;78.78;101350.70;180952;1267;43092;-57
2023/05/27 05:11:27;;;;;;;15.40;6.60;;;;;;;15.92;74.62;101352.61;180986;1267;43564;-57
2023/05/27 05:15:31;;;;;;;13.40;6.00;;;;;;;15.99;73.63;101355.90;181007;1268;43042;-59
2023/05/27 05:19:43;;;;;;;14.80;7.50;;;;;;;16.00;73.97;101354.10;180953;1267;59176;-57
2023/05/27 05:23:47;;;;;;;16.80;6.70;;;;;;;16.05;73.03;101355.92;180951;1267;43744;-58
2023/05/27 05:27:52;;;;;;;21.60;8.30;;;;;;;16.02;73.61;101354.93;180915;1268;43636;-57
2023/05/27 05:31:55;;;;;;;12.90;7.70;;;;;;;16.14;73.13;101356.07;180962;1268;43132;-57
2023/05/27 05:35:58;;;;;;;15.60;7.20;;;;;;;16.47;74.61;101350.67;181008;1268;43750;-57
2023/05/27 05:40:01;;;;;;;17.80;7.70;;;;;;;16.64;73.16;101350.32;180921;1268;59842;-57
2023/05/27 06:29:03;;;;;;;9.00;5.30;;;;;;;18.88;60.76;101363.00;180887;1266;58397;-92
2023/05/27 06:33:17;;;;;;;14.90;6.00;;;;;;;18.90;61.49;101364.36;180784;1269;44170;-90
2023/05/27 06:37:23;;;;;;;15.90;7.00;;;;;;;19.21;62.64;101367.73;180693;1266;43835;-90
2023/05/27 06:41:30;;;;;;;12.20;6.40;;;;;;;19.55;59.73;101367.94;180771;1267;43757;-90
2023/05/27 06:45:35;;;;;;;10.00;5.10;;;;;;;19.83;58.87;101371.68;180726;1266;43790;-90
2023/05/27 06:49:41;;;;;;;19.90;13.50;;;;;;;19.94;58.47;101366.35;180677;1266;60799;-91
2023/05/27 06:53:53;;;;;;;15.90;6.80;;;;;;;20.17;57.98;101370.79;180774;1267;43961;-91
2023/05/27 06:58:04;;;;;;;11.60;5.00;;;;;;;20.41;57.57;101369.13;180799;1267;44226;-92
2023/05/27 07:06:29;;;;;;;24.60;18.20;;;;;;;20.19;57.20;101363.39;181434;1261;43019;-56
2023/05/27 07:10:32;;;;;;;12.50;5.00;;;;;;;20.29;56.96;101361.92;181375;1262;58628;-57
2023/05/27 07:14:36;;;;;;;14.70;5.60;;;;;;;20.39;55.28;101363.59;181345;1261;43065;-56
2023/05/27 07:18:39;;;;;;;22.20;16.90;;;;;;;20.46;54.86;101363.41;181437;1262;42952;-57
2023/05/27 07:22:42;;;;;;;18.40;7.50;;;;;;;20.41;54.99;101356.44;181363;1262;43072;-57
2023/05/27 07:26:45;;;;;;;9.40;4.80;;;;;;;20.28;54.31;101358.21;181347;1262;43726;-57
2023/05/27 07:30:48;;;;;;;10.40;4.10;;;;;;;20.04;53.89;101360.06;181394;1262;58310;-57
2023/05/27 07:34:51;;;;;;;7.20;4.90;;;;;;;20.06;52.93;101359.42;181437;1261;43650;-57
2023/05/27 07:38:54;;;;;;;11.40;4.30;;;;;;;20.26;53.97;101357.52;181443;1261;43395;-57
2023/05/27 07:42:56;;;;;;;11.10;3.70;;;;;;;20.30;52.82;101349.92;181495;1260;43060;-57
2023/05/27 07:47:00;;;;;;;7.80;4.10;;;;;;;20.21;52.55;101347.06;181444;1260;43049;-57
2023/05/27 07:51:09;;;;;;;8.40;4.30;;;;;;;20.11;52.47;101349.17;181371;1262;57489;-57
2023/05/27 07:55:12;;;;;;;10.80;3.60;;;;;;;20.16;51.83;101339.71;181330;1260;44002;-57
2023/05/27 07:59:15;;;;;;;12.70;4.10;;;;;;;20.34;52.34;101339.59;181360;1261;44256;-57
2023/05/27 08:03:45;;;;;;;8.90;3.50;;;;;;;20.21;51.34;101337.13;181414;1261;43122;-57
2023/05/27 08:07:49;;;;;;;5.20;3.10;;;;;;;20.03;50.70;101334.73;181410;1262;43548;-57
2023/05/27 08:11:51;;;;;;;12.40;3.70;;;;;;;19.95;51.52;101330.38;181383;1262;58513;-57
2023/05/27 08:15:54;;;;;;;6.30;3.10;;;;;;;20.00;50.38;101330.54;181440;1262;43087;-57
2023/05/27 08:19:57;;;;;;;8.40;5.70;;;;;;;20.12;50.95;101327.19;181422;1262;42997;-57
2023/05/27 08:24:00;;;;;;;7.70;4.00;;;;;;;20.37;51.19;101326.70;181380;1261;43615;-58
2023/05/27 08:28:03;;;;;;;10.60;3.30;;;;;;;20.56;50.70;101310.40;181369;1261;43095;-59
2023/05/27 08:32:06;;;;;;;12.30;4.00;;;;;;;20.40;53.21;101310.30;181370;1261;58451;-58
2023/05/27 08:36:11;;;;;;;7.70;3.50;;;;;;;20.38;52.93;101311.23;181291;1261;43155;-58
2023/05/27 08:40:19;;;;;;;9.40;4.50;;;;;;;20.22;52.27;101312.64;181337;1261;43244;-59
2023/05/27 08:44:23;;;;;;;12.30;4.90;;;;;;;19.95;53.09;101312.36;181405;1263;43729;-59
2023/05/27 08:48:28;;;;;;;11.50;3.80;;;;;;;20.01;53.63;101304.77;181459;1261;43713;-59
2023/05/27 08:52:31;;;;;;;9.10;3.80;;;;;;;19.92;52.52;101302.38;181260;1262;59487;-59
2023/05/27 08:56:35;;;;;;;11.80;4.40;;;;;;;19.64;52.00;101298.05;181316;1262;43117;-59
2023/05/27 09:00:38;;;;;;;13.60;3.80;;;;;;;19.57;53.26;101296.66;181378;1260;42964;-59
2023/05/27 09:04:42;;;;;;;5.40;3.00;;;;;;;19.61;54.62;101293.08;181413;1261;50132;-59
2023/05/27 09:08:45;;;;;;;31.30;5.80;;;;;;;19.59;52.97;101295.77;181415;1260;43371;-59
2023/05/27 09:12:53;;;;;;;5.50;3.60;;;;;;;19.51;51.78;101294.93;181379;1261;58537;-58
2023/05/27 09:17:06;;;;;;;7.80;3.20;;;;;;;19.49;53.13;101293.13;181375;1261;43683;-59
2023/05/27 09:21:09;;;;;;;9.00;2.80;;;;;;;19.70;54.37;101291.54;181334;1261;43682;-59
2023/05/27 09:25:38;;;;;;;6.00;2.50;;;;;;;19.84;53.78;101288.39;181450;1261;43696;-59
2023/05/27 09:29:41;;;;;;;15.30;3.70;;;;;;;19.85;52.67;101283.75;181419;1262;43539;-59
2023/05/27 09:34:34;;;;;;;10.80;3.40;;;;;;;19.97;51.11;101280.48;181413;1262;59188;-59
2023/05/27 09:38:37;;;;;;;4.30;2.30;;;;;;;20.24;49.74;101274.54;181371;1262;43739;-59
2023/05/27 09:42:42;;;;;;;7.40;3.80;;;;;;;20.40;49.49;101270.35;181348;1264;43428;-59
2023/05/27 09:46:46;;;;;;;5.00;3.50;;;;;;;20.49;49.16;101270.46;181504;1261;43098;-59
2023/05/27 09:50:52;;;;;;;7.80;4.10;;;;;;;20.63;49.57;101269.63;181432;1262;42982;-59
2023/05/27 09:54:55;;;;;;;7.70;3.20;;;;;;;20.78;48.71;101263.49;181337;1260;59465;-59
2023/05/27 09:59:12;;;;;;;5.10;2.70;;;;;;;20.67;48.12;101261.14;181310;1261;43529;-59
2023/05/27 10:03:44;;;;;;;7.80;2.60;;;;;;;20.59;48.80;101261.98;181384;1262;43022;-58
2023/05/27 10:07:46;;;;;;;11.10;5.50;;;;;;;20.33;48.30;101254.63;181374;1263;43011;-58
2023/05/27 10:12:11;;;;;;;10.60;4.40;;;;;;;20.25;49.66;101253.50;181379;1262;43009;-58
2023/05/27 10:16:47;;;;;;;23.40;13.90;;;;;;;20.35;49.70;101246.60;181214;1263;59377;-59
2023/05/27 10:20:51;;;;;;;11.60;8.60;;;;;;;20.42;50.55;101240.79;181249;1262;43078;-58
2023/05/27 10:24:54;;;;;;;4.40;3.70;;;;;;;20.41;49.86;101239.40;181323;1262;43029;-58
2023/05/27 10:29:17;;;;;;;11.50;6.00;;;;;;;20.26;49.68;101237.02;181409;1261;43724;-58
2023/05/27 10:33:36;;;;;;;10.70;4.10;;;;;;;20.36;53.00;101235.58;181373;1264;42989;-57
2023/05/27 10:37:41;;;;;;;5.50;3.00;;;;;;;20.52;52.21;101233.71;181300;1261;58312;-58
2023/05/27 10:41:51;;;;;;;7.20;3.30;;;;;;;20.55;51.73;101234.79;181362;1260;43174;-58
2023/05/27 10:46:09;;;;;;;9.90;3.90;;;;;;;20.54;50.55;101240.39;181521;1260;43130;-58
2023/05/27 10:50:13;;;;;;;8.50;3.70;;;;;;;20.49;51.04;101233.47;181424;1261;43136;-58
2023/05/27 10:54:16;;;;;;;9.70;3.10;;;;;;;20.43;49.69;101234.55;181348;1261;43696;-58
2023/05/27 10:58:36;;;;;;;7.70;4.10;;;;;;;20.40;51.39;101235.86;181363;1262;57448;-58
2023/05/27 11:02:39;;;;;;;8.30;4.30;;;;;;;20.44;50.66;101237.31;181318;1263;43065;-59
2023/05/27 11:06:42;;;;;;;10.30;4.00;;;;;;;20.53;49.50;101234.21;181379;1263;43090;-57
2023/05/27 11:10:45;;;;;;;17.80;5.20;;;;;;;20.51;50.65;101232.52;181416;1262;43103;-58
2023/05/27 11:14:51;;;;;;;9.40;3.60;;;;;;;20.54;51.68;101218.50;181431;1261;43601;-58
2023/05/27 11:18:54;;;;;;;12.10;4.00;;;;;;;20.63;51.13;101214.72;181412;1260;58254;-58
2023/05/27 11:23:01;;;;;;;14.40;5.00;;;;;;;20.67;50.50;101212.97;181439;1261;43489;-57
2023/05/27 11:27:15;;;;;;;6.10;3.80;;;;;;;20.69;49.33;101207.39;181350;1260;43003;-58
2023/05/27 11:31:21;;;;;;;8.90;3.40;;;;;;;20.66;50.52;101208.80;181317;1262;43776;-57
2023/05/27 11:35:28;;;;;;;5.80;3.00;;;;;;;20.66;49.46;101201.58;181323;1263;42992;-56
2023/05/27 11:39:32;;;;;;;10.10;3.90;;;;;;;20.75;48.97;101203.45;181377;1263;59916;-57
2023/05/27 11:43:35;;;;;;;8.40;3.50;;;;;;;20.69;50.64;101199.37;181340;1261;43159;-57
2023/05/27 11:47:42;;;;;;;9.40;4.80;;;;;;;20.73;50.75;101198.42;181346;1262;43028;-56
2023/05/27 11:51:49;;;;;;;12.20;4.40;;;;;;;20.77;49.00;101193.39;181376;1262;43650;-57
2023/05/27 11:55:53;;;;;;;6.80;3.20;;;;;;;20.77;50.35;101191.23;181358;1263;43846;-57
2023/05/27 12:00:07;;;;;;;7.50;4.00;;;;;;;20.92;50.07;101190.25;181305;1262;58571;-56
2023/05/27 12:04:11;;;;;;;12.40;4.20;;;;;;;20.94;49.58;101189.45;181318;1263;43772;-57
2023/05/27 12:08:14;;;;;;;6.30;3.30;;;;;;;20.84;47.18;101181.61;181374;1260;43074;-56
2023/05/27 12:12:20;;;;;;;13.80;4.80;;;;;;;20.80;49.14;101179.30;181344;1262;43822;-57
2023/05/27 12:16:23;;;;;;;5.60;3.70;;;;;;;20.86;48.98;101171.16;181337;1262;43962;-57
2023/05/27 12:20:28;;;;;;;9.00;3.30;;;;;;;20.99;49.61;101165.15;181395;1260;58522;-56
2023/05/27 12:24:34;;;;;;;10.70;4.00;;;;;;;21.10;48.26;101163.73;181398;1261;43038;-56
2023/05/27 12:28:37;;;;;;;24.80;9.00;;;;;;;21.17;48.48;101163.87;181438;1260;43063;-58
2023/05/27 12:32:42;;;;;;;11.60;4.40;;;;;;;21.26;49.12;101160.66;181360;1262;43683;-61
2023/05/27 12:36:47;;;;;;;5.00;2.90;;;;;;;21.20;48.71;101155.41;181339;1262;43517;-56
2023/05/27 12:40:50;;;;;;;6.60;3.10;;;;;;;21.21;47.12;101150.40;181337;1261;59670;-57
2023/05/27 12:44:53;;;;;;;3.70;2.20;;;;;;;21.23;45.87;101145.66;181409;1263;43177;-56
2023/05/27 12:48:57;;;;;;;6.20;3.20;;;;;;;21.24;47.12;101144.06;181404;1261;43066;-56
2023/05/27 12:53:00;;;;;;;9.90;3.00;;;;;;;21.19;46.03;101145.77;181363;1260;43186;-57
2023/05/27 12:57:13;;;;;;;7.70;3.20;;;;;;;21.21;47.20;101138.45;181370;1260;43024;-56
2023/05/27 13:16:21;;;;;;;5.20;2.40;;;;;;;21.31;45.21;101119.89;181588;1259;43988;-58
2023/05/27 13:20:25;;;;;;;5.80;3.00;;;;;;;21.35;45.25;101113.14;181633;1259;43389;-57
2023/05/27 13:24:28;;;;;;;8.10;3.70;;;;;;;21.52;47.65;101109.23;181578;1261;58442;-58
2023/05/27 13:28:31;;;;;;;6.60;2.50;;;;;;;21.63;45.60;101105.98;181456;1259;43255;-58
2023/05/27 13:33:04;;;;;;;8.10;3.40;;;;;;;21.65;45.63;101104.59;181449;1260;43093;-58
2023/05/27 13:37:07;;;;;;;5.80;2.40;;;;;;;21.64;47.96;101099.85;181434;1261;43068;-58
2023/05/27 13:45:57;;;;;;;5.00;3.20;;;;;;;21.65;45.07;101088.99;181363;1259;58248;-89
2023/05/27 14:08:23;;;;;;;5.20;2.10;;;;;;;21.98;45.53;101073.93;181198;1263;60071;-57
2023/05/27 14:12:26;;;;;;;5.20;2.60;;;;;;;21.97;43.26;101072.17;181198;1265;43075;-58
2023/05/27 14:16:41;;;;;;;3.70;2.40;;;;;;;21.92;43.48;101067.88;181231;1264;43032;-57
2023/05/27 14:20:45;;;;;;;5.10;2.80;;;;;;;21.90;42.93;101060.42;181247;1265;43086;-57
2023/05/27 14:24:48;;;;;;;5.40;3.10;;;;;;;21.88;44.13;101060.31;181201;1263;43359;-57
2023/05/27 14:28:51;;;;;;;6.90;3.40;;;;;;;21.90;44.05;101058.86;181250;1262;58067;-57
2023/05/27 14:32:54;;;;;;;7.30;2.50;;;;;;;21.99;44.79;101052.52;181281;1264;43794;-57
2023/05/27 14:36:58;;;;;;;8.90;2.50;;;;;;;22.00;44.25;101045.88;181342;1262;43082;-58
2023/05/27 14:41:01;;;;;;;7.30;2.80;;;;;;;21.92;44.76;101041.04;181285;1261;43690;-58
2023/05/27 14:45:58;;;;;;;7.30;2.50;;;;;;;22.00;45.51;101040.16;181209;1263;43002;-57
2023/05/27 14:50:02;;;;;;;7.30;2.50;;;;;;;22.03;44.92;101041.05;181306;1263;58037;-58
2023/05/27 14:54:05;;;;;;;5.90;2.40;;;;;;;22.08;44.30;101035.85;181296;1263;43657;-57
2023/05/27 14:58:47;;;;;;;5.80;2.20;;;;;;;22.14;43.28;101029.58;181257;1263;43462;-57
2023/05/27 15:02:58;;;;;;;3.60;2.50;;;;;;;22.25;44.25;101025.25;180939;1263;43823;-90
2023/05/27 15:07:04;;;;;;;4.00;2.00;;;;;;;22.27;45.32;101025.17;180972;1263;48317;-88
2023/05/27 15:11:08;;;;;;;6.90;1.80;;;;;;;22.22;45.01;101021.94;180873;1264;58746;-90
2023/05/27 15:15:13;;;;;;;1.90;1.70;;;;;;;22.14;44.82;101018.26;180793;1263;43870;-91
2023/05/27 15:19:17;;;;;;;5.10;2.30;;;;;;;22.12;42.71;101015.02;180847;1265;43754;-91
2023/05/27 15:23:32;;;;;;;3.90;2.10;;;;;;;22.17;42.75;101014.05;180850;1264;43832;-91
2023/05/27 15:27:44;;;;;;;4.00;2.50;;;;;;;22.20;44.78;101014.34;180889;1263;43756;-90
2023/05/27 15:31:51;;;;;;;2.70;2.00;;;;;;;22.04;45.39;101009.48;180831;1264;59523;-92
2023/05/27 15:35:59;;;;;;;6.50;2.50;;;;;;;21.97;45.15;101002.16;180743;1263;44176;-92
2023/05/27 15:40:05;;;;;;;5.10;2.70;;;;;;;21.94;45.64;100997.35;180814;1264;43825;-89
2023/05/27 15:44:10;;;;;;;3.50;1.70;;;;;;;21.95;43.66;100996.09;180818;1264;44047;-88
2023/05/27 15:48:17;;;;;;;5.40;2.00;;;;;;;21.95;43.60;100992.88;180802;1263;46718;-89
2023/05/27 15:52:24;;;;;;;5.50;2.00;;;;;;;22.02;44.27;100994.06;180768;1263;59239;-90
2023/05/27 15:56:28;;;;;;;3.90;2.20;;;;;;;22.10;44.36;100986.73;180765;1265;44509;-89
2023/05/27 16:00:31;;;;;;;2.00;1.40;;;;;;;22.16;45.30;100987.14;180671;1264;43827;-88
2023/05/27 16:04:35;;;;;;;3.90;2.30;;;;;;;22.08;46.74;100981.36;180688;1264;43887;-89
2023/05/27 16:08:38;;;;;;;1.70;1.60;;;;;;;22.02;45.27;100977.77;180767;1263;43717;-89
2023/05/27 16:12:42;;;;;;;3.30;1.60;;;;;;;21.84;47.45;100968.12;180556;1265;60010;-89
2023/05/27 16:16:48;;;;;;;7.50;2.30;;;;;;;21.79;46.59;100967.71;180737;1263;43719;-89
2023/05/27 16:20:51;;;;;;;4.50;2.10;;;;;;;21.70;46.25;100960.83;180769;1264;43762;-89
2023/05/27 16:24:56;;;;;;;3.30;1.60;;;;;;;21.67;46.76;100957.86;180586;1264;47241;-89
2023/05/27 16:28:59;;;;;;;2.40;1.90;;;;;;;21.60;45.57;100951.29;180622;1262;43962;-89
2023/05/27 16:33:03;;;;;;;5.60;2.40;;;;;;;21.55;45.35;100948.99;180535;1264;58440;-89
2023/05/27 16:37:06;;;;;;;3.80;1.60;;;;;;;21.39;45.14;100949.02;180836;1263;43839;-88
2023/05/27 16:41:10;;;;;;;3.80;2.10;;;;;;;21.22;45.93;100951.35;180747;1265;43832;-89
2023/05/27 16:45:13;;;;;;;5.30;2.50;;;;;;;21.08;47.30;100947.80;180558;1264;43898;-87
2023/05/27 16:49:16;;;;;;;3.70;1.90;;;;;;;20.96;46.88;100946.81;180676;1263;43882;-89
2023/05/27 16:53:20;;;;;;;3.10;1.40;;;;;;;20.85;47.72;100937.64;180827;1263;58320;-90
2023/05/27 16:57:23;;;;;;;2.00;1.60;;;;;;;20.72;48.72;100934.73;180665;1264;44080;-89
2023/05/27 17:01:26;;;;;;;2.40;1.50;;;;;;;20.57;49.59;100927.59;180734;1264;43789;-89
2023/05/27 17:05:30;;;;;;;3.30;1.60;;;;;;;20.41;49.91;100927.77;180525;1264;43878;-89
2023/05/27 17:09:33;;;;;;;3.60;1.50;;;;;;;20.25;48.26;100926.21;180560;1264;44026;-87
2023/05/27 17:13:37;;;;;;;3.40;1.20;;;;;;;20.12;49.75;100921.84;180676;1264;58328;-88
2023/05/27 17:17:41;;;;;;;7.20;2.00;;;;;;;20.06;52.62;100924.68;180645;1264;44185;-88
2023/05/27 17:21:47;;;;;;;3.60;1.90;;;;;;;20.00;53.08;100922.98;180648;1264;44105;-88
2023/05/27 17:25:51;;;;;;;3.20;1.80;;;;;;;19.94;53.44;100920.22;180653;1264;44043;-88
2023/05/27 17:29:54;;;;;;;12.80;2.50;;;;;;;19.77;53.34;100919.45;180511;1265;44010;-89
2023/05/27 17:33:57;;;;;;;3.40;1.80;;;;;;;19.58;54.27;100922.98;180515;1266;59516;-89
2023/05/27 17:38:04;;;;;;;3.80;1.70;;;;;;;19.39;54.08;100924.07;180522;1267;43905;-89
2023/05/27 17:42:08;;;;;;;3.90;2.00;;;;;;;19.24;54.44;100923.02;180529;1264;43825;-89
2023/05/27 17:46:12;;;;;;;6.00;1.90;;;;;;;19.07;54.93;100920.20;180714;1264;44022;-89
2023/05/27 17:50:15;;;;;;;2.40;1.50;;;;;;;18.90;55.71;100918.73;180689;1264;44388;-89
2023/05/27 17:54:19;;;;;;;5.30;2.00;;;;;;;18.72;55.31;100915.58;180616;1264;57926;-88
2023/05/27 17:58:22;;;;;;;3.10;2.30;;;;;;;18.57;54.52;100914.29;180502;1264;43759;-89
2023/05/27 18:02:25;;;;;;;3.20;1.90;;;;;;;18.46;54.81;100915.69;180497;1264;272206;-88
2023/05/27 18:06:29;;;;;;;3.90;2.00;;;;;;;18.37;53.19;100910.79;180695;1264;43895;-88
2023/05/27 18:10:32;;;;;;;3.60;2.70;;;;;;;18.28;53.42;100911.00;180532;1264;43944;-88
2023/05/27 18:14:36;;;;;;;3.50;2.10;;;;;;;18.16;54.78;100909.91;180763;1262;57004;-88
2023/05/27 18:18:40;;;;;;;2.60;1.70;;;;;;;18.03;54.64;100910.23;180702;1264;43975;-89
2023/05/27 18:22:47;;;;;;;8.80;2.20;;;;;;;17.89;54.51;100910.94;180720;1264;44584;-90
2023/05/27 18:26:51;;;;;;;1.20;1.10;;;;;;;17.75;54.32;100911.56;180684;1266;43837;-89
2023/05/27 18:30:54;;;;;;;2.20;2.00;;;;;;;17.61;54.65;100908.71;180699;1264;44440;-88
2023/05/27 18:34:59;;;;;;;2.50;1.90;;;;;;;17.47;54.63;100911.55;180641;1264;57957;-88
2023/05/27 18:39:07;;;;;;;4.10;1.60;;;;;;;17.35;54.01;100910.08;180737;1263;44156;-89
2023/05/27 18:43:10;;;;;;;3.70;1.90;;;;;;;17.25;53.51;100909.09;180683;1264;43878;-89
2023/05/27 18:47:13;;;;;;;4.40;2.20;;;;;;;17.15;53.30;100914.58;180690;1264;43886;-88
2023/05/27 18:51:17;;;;;;;7.40;2.80;;;;;;;17.05;53.26;100912.33;180686;1265;44090;-89
2023/05/27 18:55:20;;;;;;;2.50;2.30;;;;;;;16.95;53.45;100912.01;180577;1265;59183;-90
2023/05/27 19:03:52;;;;;;;7.70;2.70;;;;;;;16.74;53.48;100916.25;143393;1263;43451;-56
2023/05/27 19:07:58;;;;;;;4.70;2.70;;;;;;;16.63;53.57;100917.60;181157;1259;43795;-90
2023/05/27 19:16:50;;;;;;;7.30;3.80;;;;;;;16.36;53.96;100923.77;181083;1263;60317;-90
2023/05/27 19:30:12;;;;;;;9.10;3.50;;;;;;;15.76;55.68;100927.48;181067;1261;43602;-57
2023/05/27 19:34:15;;;;;;;6.70;3.30;;;;;;;15.60;56.13;100927.48;181357;1259;43859;-56
2023/05/27 19:38:17;;;;;;;3.70;3.10;;;;;;;15.48;56.51;100928.65;181296;1261;58031;-57
2023/05/27 19:42:25;;;;;;;3.80;2.40;;;;;;;15.35;56.64;100925.49;181436;1261;43437;-60
2023/05/27 19:46:31;;;;;;;7.60;3.20;;;;;;;15.25;57.03;100926.23;181328;1259;43542;-59
2023/05/27 19:50:33;;;;;;;4.60;2.10;;;;;;;15.16;57.30;100931.37;181366;1259;43087;-57
2023/05/27 19:54:36;;;;;;;6.20;3.60;;;;;;;15.05;57.84;100930.34;181324;1262;43005;-56
2023/05/27 19:58:39;;;;;;;5.30;3.30;;;;;;;14.97;58.20;100931.80;181411;1260;58017;-59
2023/05/27 20:02:44;;;;;;;6.30;3.60;;;;;;;14.90;58.65;100930.30;181297;1261;43847;-57
2023/05/27 20:06:48;;;;;;;6.60;3.60;;;;;;;14.81;59.19;100928.98;181385;1261;43746;-57
2023/05/27 20:10:51;;;;;;;6.80;2.90;;;;;;;14.70;60.68;100931.84;181433;1262;43274;-58
2023/05/27 20:14:54;;;;;;;6.50;4.20;;;;;;;14.56;62.50;100933.41;181471;1259;43813;-59
2023/05/27 20:18:57;;;;;;;6.50;4.00;;;;;;;14.31;65.68;100935.06;181344;1262;59936;-56
2023/05/27 20:23:00;;;;;;;9.60;6.10;;;;;;;13.97;67.05;100930.62;181365;1260;43529;-56
2023/05/27 20:27:03;;;;;;;8.60;6.80;;;;;;;13.71;67.67;100938.03;181337;1261;43599;-57
2023/05/27 20:31:05;;;;;;;11.20;7.70;;;;;;;13.53;68.23;100929.92;181269;1262;43687;-58
2023/05/27 20:35:09;;;;;;;9.30;7.60;;;;;;;13.37;69.60;100931.71;181329;1261;43011;-56